Terminal Aerodrome Forecast
Issued by NWS Lake Charles, LA

Home | Current Version | Previous Version | Text Only | Print | Product List | Glossary On
Versions: 1 2 3 4 5 6 7 8 9 10 11 12 13
000
FTUS44 KLCH 221024 AAA
TAFARA
TAF AMD
KARA 221024Z 2210/2306 16011KT P6SM -SHRA VCTS SCT015 OVC035CB
      TEMPO 2210/2214 4SM TSRA OVC015CB
     FM221400 22012KT P6SM VCSH OVC015
     FM221600 28014G19KT P6SM BKN015
     FM222000 30016G23KT P6SM SKC
     FM230100 30012KT P6SM SKC=

USA.gov is the U.S. government's official web portal to all federal, state and local government web resources and services.